PWSweather.com
Personal Weather Stations
Station Observations
719732
Ponferrada, PonferradaES 24411

PonferradaPonferradaES 24411

Lat: 42.5728, Lon: -6.6425

Elevation: 1676

Station Type: PCE-FWS 20 con garita Ambient Weather SRS100LX

www.meteo.spyfly.es

High Low Average
Temperature 52.9°F11.6°C 42.3°F5.7°C 45.2°F7.3°C
Dew Point 48.7°F9.3°C 38.0°F3.3°C 41.4°F5.2°C
Winds 13.6 mph 21.9 kmh Calm Calm 3.0 mph SW4.8 kmh SW
Wind Gusts 22.8 mph36.7 kmh -- 7.0 mph11.3 kmh
Humidity 99% 66% 87%
Pressure 29.88 in1011.9 mb 29.75 in1007.5 mb -
Precipitation 0.21 in5.3 mm - -
Hour Temp Dew Point Humidity Winds Wind Gusts Pressure Precip Precip Rate Daily Precip Total
12:00 AM 42.3°F5.7°C 39.8°F4.3°C 91% 0.7 mph E1.1 kmh E 3.1 mph5.0 kmh 29.88 in1011.9 mb 0.00 in0.0 mm 0.00 in0.0 mm 0.01 in0.3 mm
12:05 AM 42.3°F5.7°C 39.8°F4.3°C 91% 0.7 mph ENE1.1 kmh ENE 3.1 mph5.0 kmh 29.87 in1011.5 mb 0.00 in0.0 mm 0.00 in0.0 mm 0.01 in0.3 mm
12:10 AM 42.4°F5.8°C 40.0°F4.4°C 91% 0.7 mph NE1.1 kmh NE 2.2 mph3.5 kmh 29.88 in1011.9 mb 0.00 in0.0 mm 0.00 in0.0 mm 0.01 in0.3 mm
12:15 AM 42.4°F5.8°C 40.0°F4.4°C 91% Calm Calm 2.2 mph3.5 kmh 29.88 in1011.9 mb 0.00 in0.0 mm 0.00 in0.0 mm 0.01 in0.3 mm
12:20 AM 42.4°F5.8°C 40.0°F4.4°C 91% Calm Calm 1.6 mph2.6 kmh 29.88 in1011.9 mb 0.00 in0.0 mm 0.00 in0.0 mm 0.01 in0.3 mm
12:25 AM 42.3°F5.7°C 39.8°F4.3°C 91% Calm Calm 0.7 mph1.1 kmh 29.87 in1011.5 mb 0.00 in0.0 mm 0.00 in0.0 mm 0.01 in0.3 mm
12:30 AM 42.3°F5.7°C 39.8°F4.3°C 91% Calm Calm 0.7 mph1.1 kmh 29.87 in1011.5 mb 0.00 in0.0 mm 0.00 in0.0 mm 0.01 in0.3 mm
12:35 AM 42.3°F5.7°C 39.8°F4.3°C 91% Calm Calm 1.6 mph2.6 kmh 29.87 in1011.5 mb 0.00 in0.0 mm 0.00 in0.0 mm 0.01 in0.3 mm
12:40 AM 42.4°F5.8°C 40.3°F4.6°C 92% 0.7 mph E1.1 kmh E 2.2 mph3.5 kmh 29.88 in1011.9 mb 0.00 in0.0 mm 0.00 in0.0 mm 0.01 in0.3 mm
12:45 AM 42.4°F5.8°C 40.3°F4.6°C 92% 1.6 mph ESE2.6 kmh ESE 2.2 mph3.5 kmh 29.87 in1011.5 mb 0.00 in0.0 mm 0.00 in0.0 mm 0.01 in0.3 mm
12:50 AM 42.4°F5.8°C 40.3°F4.6°C 92% 0.7 mph ESE1.1 kmh ESE 3.1 mph5.0 kmh 29.87 in1011.5 mb 0.00 in0.0 mm 0.00 in0.0 mm 0.01 in0.3 mm
12:55 AM 42.4°F5.8°C 40.3°F4.6°C 92% 1.6 mph E2.6 kmh E 3.1 mph5.0 kmh 29.87 in1011.5 mb 0.00 in0.0 mm 0.00 in0.0 mm 0.01 in0.3 mm
01:00 AM 42.4°F5.8°C 40.3°F4.6°C 92% 1.6 mph E2.6 kmh E 3.1 mph5.0 kmh 29.87 in1011.5 mb 0.00 in0.0 mm 0.00 in0.0 mm 0.00 in0.0 mm
01:05 AM 42.4°F5.8°C 40.3°F4.6°C 92% 2.2 mph ESE3.5 kmh ESE 3.1 mph5.0 kmh 29.86 in1011.2 mb 0.00 in0.0 mm 0.00 in0.0 mm 0.00 in0.0 mm
01:10 AM 42.4°F5.8°C 40.6°F4.8°C 93% 1.6 mph ESE2.6 kmh ESE 3.1 mph5.0 kmh 29.86 in1011.2 mb 0.00 in0.0 mm 0.00 in0.0 mm 0.00 in0.0 mm
01:15 AM 42.4°F5.8°C 40.6°F4.8°C 93% Calm Calm 3.1 mph5.0 kmh 29.86 in1011.2 mb 0.00 in0.0 mm 0.00 in0.0 mm 0.00 in0.0 mm
01:20 AM 42.4°F5.8°C 40.6°F4.8°C 93% 0.7 mph SSE1.1 kmh SSE 3.1 mph5.0 kmh 29.86 in1011.2 mb 0.00 in0.0 mm 0.00 in0.0 mm 0.00 in0.0 mm
01:25 AM 42.4°F5.8°C 40.6°F4.8°C 93% Calm Calm 1.6 mph2.6 kmh 29.86 in1011.2 mb 0.00 in0.0 mm 0.00 in0.0 mm 0.00 in0.0 mm
01:30 AM 42.4°F5.8°C 40.6°F4.8°C 93% Calm Calm 1.6 mph2.6 kmh 29.86 in1011.2 mb 0.00 in0.0 mm 0.00 in0.0 mm 0.00 in0.0 mm
01:35 AM 42.6°F5.9°C 40.7°F4.8°C 93% Calm Calm 1.6 mph2.6 kmh 29.86 in1011.2 mb 0.00 in0.0 mm 0.00 in0.0 mm 0.00 in0.0 mm
01:40 AM 42.6°F5.9°C 40.7°F4.8°C 93% Calm Calm 0.7 mph1.1 kmh 29.86 in1011.2 mb 0.00 in0.0 mm 0.00 in0.0 mm 0.00 in0.0 mm
01:45 AM 42.6°F5.9°C 40.7°F4.8°C 93% 0.7 mph SE1.1 kmh SE 1.6 mph2.6 kmh 29.85 in1010.8 mb 0.00 in0.0 mm 0.00 in0.0 mm 0.00 in0.0 mm
01:50 AM 42.6°F5.9°C 40.7°F4.8°C 93% 0.7 mph SE1.1 kmh SE 1.6 mph2.6 kmh 29.85 in1010.8 mb 0.00 in0.0 mm 0.00 in0.0 mm 0.00 in0.0 mm
01:55 AM 42.6°F5.9°C 40.7°F4.8°C 93% Calm Calm 1.6 mph2.6 kmh 29.85 in1010.8 mb 0.00 in0.0 mm 0.00 in0.0 mm 0.00 in0.0 mm
02:00 AM 42.6°F5.9°C 40.7°F4.8°C 93% 1.6 mph N2.6 kmh N 3.1 mph5.0 kmh 29.85 in1010.8 mb 0.00 in0.0 mm 0.00 in0.0 mm 0.00 in0.0 mm
02:05 AM 42.6°F5.9°C 40.7°F4.8°C 93% 1.6 mph N2.6 kmh N 3.1 mph5.0 kmh 29.85 in1010.8 mb 0.00 in0.0 mm 0.00 in0.0 mm 0.00 in0.0 mm
02:10 AM 42.4°F5.8°C 40.6°F4.8°C 93% Calm Calm 2.2 mph3.5 kmh 29.84 in1010.5 mb 0.00 in0.0 mm 0.00 in0.0 mm 0.00 in0.0 mm
02:15 AM 42.4°F5.8°C 40.6°F4.8°C 93% 0.7 mph N1.1 kmh N 2.2 mph3.5 kmh 29.85 in1010.8 mb 0.00 in0.0 mm 0.00 in0.0 mm 0.00 in0.0 mm
02:20 AM 42.4°F5.8°C 40.6°F4.8°C 93% Calm Calm 2.2 mph3.5 kmh 29.84 in1010.5 mb 0.00 in0.0 mm 0.00 in0.0 mm 0.00 in0.0 mm
02:25 AM 42.4°F5.8°C 40.6°F4.8°C 93% 0.7 mph N1.1 kmh N 3.1 mph5.0 kmh 29.84 in1010.5 mb 0.00 in0.0 mm 0.00 in0.0 mm 0.00 in0.0 mm
02:30 AM 42.4°F5.8°C 40.6°F4.8°C 93% Calm Calm 3.1 mph5.0 kmh 29.84 in1010.5 mb 0.00 in0.0 mm 0.00 in0.0 mm 0.00 in0.0 mm
02:35 AM 42.4°F5.8°C 40.6°F4.8°C 93% 1.6 mph N2.6 kmh N 2.2 mph3.5 kmh 29.84 in1010.5 mb 0.00 in0.0 mm 0.00 in0.0 mm 0.00 in0.0 mm
02:40 AM 42.4°F5.8°C 40.6°F4.8°C 93% Calm Calm 2.2 mph3.5 kmh 29.84 in1010.5 mb 0.00 in0.0 mm 0.00 in0.0 mm 0.00 in0.0 mm
02:45 AM 42.6°F5.9°C 40.7°F4.8°C 93% 1.6 mph NNE2.6 kmh NNE 3.1 mph5.0 kmh 29.84 in1010.5 mb 0.00 in0.0 mm 0.00 in0.0 mm 0.00 in0.0 mm
02:50 AM 42.6°F5.9°C 41.0°F5.0°C 94% 2.2 mph NE3.5 kmh NE 4.5 mph7.2 kmh 29.84 in1010.5 mb 0.00 in0.0 mm 0.00 in0.0 mm 0.00 in0.0 mm
02:55 AM 42.6°F5.9°C 41.0°F5.0°C 94% Calm Calm 4.5 mph7.2 kmh 29.83 in1010.2 mb 0.00 in0.0 mm 0.00 in0.0 mm 0.00 in0.0 mm
03:00 AM 42.6°F5.9°C 41.0°F5.0°C 94% 0.7 mph NNE1.1 kmh NNE 3.1 mph5.0 kmh 29.83 in1010.2 mb 0.00 in0.0 mm 0.00 in0.0 mm 0.00 in0.0 mm
03:05 AM 42.6°F5.9°C 41.0°F5.0°C 94% 0.7 mph NNE1.1 kmh NNE 3.1 mph5.0 kmh 29.83 in1010.2 mb 0.00 in0.0 mm 0.00 in0.0 mm 0.00 in0.0 mm
03:10 AM 42.6°F5.9°C 41.0°F5.0°C 94% Calm Calm 3.1 mph5.0 kmh 29.83 in1010.2 mb 0.00 in0.0 mm 0.00 in0.0 mm 0.00 in0.0 mm
03:15 AM 42.6°F5.9°C 41.0°F5.0°C 94% Calm Calm 2.2 mph3.5 kmh 29.83 in1010.2 mb 0.00 in0.0 mm 0.00 in0.0 mm 0.00 in0.0 mm
03:20 AM 42.6°F5.9°C 41.0°F5.0°C 94% 0.7 mph E1.1 kmh E 2.2 mph3.5 kmh 29.83 in1010.2 mb 0.00 in0.0 mm 0.00 in0.0 mm 0.00 in0.0 mm
03:25 AM 42.6°F5.9°C 41.0°F5.0°C 94% 1.6 mph NE2.6 kmh NE 2.2 mph3.5 kmh 29.83 in1010.2 mb 0.00 in0.0 mm 0.00 in0.0 mm 0.00 in0.0 mm
03:30 AM 42.6°F5.9°C 41.0°F5.0°C 94% 2.2 mph N3.5 kmh N 3.1 mph5.0 kmh 29.84 in1010.5 mb 0.00 in0.0 mm 0.00 in0.0 mm 0.00 in0.0 mm
03:35 AM 42.8°F6.0°C 40.9°F4.9°C 93% 1.6 mph NNW2.6 kmh NNW 3.1 mph5.0 kmh 29.83 in1010.2 mb 0.00 in0.0 mm 0.00 in0.0 mm 0.00 in0.0 mm
03:40 AM 42.8°F6.0°C 40.9°F4.9°C 93% Calm Calm 4.5 mph7.2 kmh 29.82 in1009.8 mb 0.00 in0.0 mm 0.00 in0.0 mm 0.00 in0.0 mm
03:45 AM 42.8°F6.0°C 40.9°F4.9°C 93% Calm Calm 4.5 mph7.2 kmh 29.82 in1009.8 mb 0.00 in0.0 mm 0.00 in0.0 mm 0.00 in0.0 mm
03:50 AM 42.8°F6.0°C 40.9°F4.9°C 93% Calm Calm 2.2 mph3.5 kmh 29.82 in1009.8 mb 0.00 in0.0 mm 0.00 in0.0 mm 0.00 in0.0 mm
03:55 AM 42.8°F6.0°C 40.9°F4.9°C 93% Calm Calm 1.6 mph2.6 kmh 29.82 in1009.8 mb 0.00 in0.0 mm 0.00 in0.0 mm 0.00 in0.0 mm
04:00 AM 42.6°F5.9°C 41.0°F5.0°C 94% 1.6 mph S2.6 kmh S 2.2 mph3.5 kmh 29.82 in1009.8 mb 0.00 in0.0 mm 0.00 in0.0 mm 0.00 in0.0 mm
04:05 AM 42.6°F5.9°C 41.0°F5.0°C 94% 1.6 mph N2.6 kmh N 2.2 mph3.5 kmh 29.82 in1009.8 mb 0.00 in0.0 mm 0.00 in0.0 mm 0.00 in0.0 mm
04:10 AM 42.6°F5.9°C 41.0°F5.0°C 94% 1.6 mph N2.6 kmh N 2.2 mph3.5 kmh 29.82 in1009.8 mb 0.00 in0.0 mm 0.00 in0.0 mm 0.00 in0.0 mm
04:15 AM 42.6°F5.9°C 41.0°F5.0°C 94% Calm Calm 2.2 mph3.5 kmh 29.82 in1009.8 mb 0.00 in0.0 mm 0.00 in0.0 mm 0.00 in0.0 mm
04:20 AM 42.6°F5.9°C 41.0°F5.0°C 94% Calm Calm 2.2 mph3.5 kmh 29.82 in1009.8 mb 0.00 in0.0 mm 0.00 in0.0 mm 0.00 in0.0 mm
04:25 AM 42.6°F5.9°C 41.0°F5.0°C 94% Calm Calm 1.6 mph2.6 kmh 29.81 in1009.5 mb 0.00 in0.0 mm 0.00 in0.0 mm 0.00 in0.0 mm
04:30 AM 42.6°F5.9°C 41.3°F5.2°C 95% 0.7 mph NW1.1 kmh NW 1.6 mph2.6 kmh 29.82 in1009.8 mb 0.00 in0.0 mm 0.00 in0.0 mm 0.00 in0.0 mm
04:35 AM 42.6°F5.9°C 41.3°F5.2°C 95% 0.7 mph NW1.1 kmh NW 1.6 mph2.6 kmh 29.82 in1009.8 mb 0.00 in0.0 mm 0.00 in0.0 mm 0.00 in0.0 mm
04:40 AM 42.6°F5.9°C 41.3°F5.2°C 95% 2.2 mph NNW3.5 kmh NNW 3.1 mph5.0 kmh 29.81 in1009.5 mb 0.00 in0.0 mm 0.00 in0.0 mm 0.00 in0.0 mm
04:45 AM 42.6°F5.9°C 41.3°F5.2°C 95% Calm Calm 3.1 mph5.0 kmh 29.81 in1009.5 mb 0.00 in0.0 mm 0.00 in0.0 mm 0.00 in0.0 mm
04:50 AM 42.6°F5.9°C 41.3°F5.2°C 95% 0.7 mph NNW1.1 kmh NNW 3.1 mph5.0 kmh 29.81 in1009.5 mb 0.00 in0.0 mm 0.00 in0.0 mm 0.00 in0.0 mm
04:55 AM 42.6°F5.9°C 41.3°F5.2°C 95% Calm Calm 1.6 mph2.6 kmh 29.80 in1009.1 mb 0.00 in0.0 mm 0.00 in0.0 mm 0.00 in0.0 mm
05:00 AM 42.6°F5.9°C 41.3°F5.2°C 95% Calm Calm 1.6 mph2.6 kmh 29.81 in1009.5 mb 0.00 in0.0 mm 0.00 in0.0 mm 0.00 in0.0 mm
05:05 AM 42.4°F5.8°C 41.1°F5.1°C 95% 0.7 mph NW1.1 kmh NW 1.6 mph2.6 kmh 29.80 in1009.1 mb 0.00 in0.0 mm 0.00 in0.0 mm 0.00 in0.0 mm
05:10 AM 42.6°F5.9°C 41.3°F5.2°C 95% Calm Calm 1.6 mph2.6 kmh 29.80 in1009.1 mb 0.00 in0.0 mm 0.00 in0.0 mm 0.00 in0.0 mm
05:15 AM 42.6°F5.9°C 41.6°F5.3°C 96% Calm Calm 1.6 mph2.6 kmh 29.80 in1009.1 mb 0.00 in0.0 mm 0.00 in0.0 mm 0.00 in0.0 mm
05:20 AM 42.6°F5.9°C 41.6°F5.3°C 96% Calm Calm 1.6 mph2.6 kmh 29.80 in1009.1 mb 0.00 in0.0 mm 0.00 in0.0 mm 0.00 in0.0 mm
05:25 AM 42.6°F5.9°C 41.6°F5.3°C 96% Calm Calm 1.6 mph2.6 kmh 29.80 in1009.1 mb 0.00 in0.0 mm 0.00 in0.0 mm 0.00 in0.0 mm
05:30 AM 42.4°F5.8°C 41.4°F5.2°C 96% 0.7 mph N1.1 kmh N 1.6 mph2.6 kmh 29.79 in1008.8 mb 0.00 in0.0 mm 0.00 in0.0 mm 0.00 in0.0 mm
05:35 AM 42.4°F5.8°C 41.4°F5.2°C 96% Calm Calm 1.6 mph2.6 kmh 29.79 in1008.8 mb 0.00 in0.0 mm 0.00 in0.0 mm 0.00 in0.0 mm
05:40 AM 42.4°F5.8°C 41.4°F5.2°C 96% Calm Calm 1.6 mph2.6 kmh 29.79 in1008.8 mb 0.00 in0.0 mm 0.00 in0.0 mm 0.00 in0.0 mm
05:45 AM 42.4°F5.8°C 41.4°F5.2°C 96% 0.7 mph E1.1 kmh E 1.6 mph2.6 kmh 29.79 in1008.8 mb 0.00 in0.0 mm 0.00 in0.0 mm 0.00 in0.0 mm
05:50 AM 42.4°F5.8°C 41.4°F5.2°C 96% 0.7 mph NW1.1 kmh NW 2.2 mph3.5 kmh 29.79 in1008.8 mb 0.00 in0.0 mm 0.00 in0.0 mm 0.00 in0.0 mm
05:55 AM 42.4°F5.8°C 41.4°F5.2°C 96% 0.7 mph NW1.1 kmh NW 2.2 mph3.5 kmh 29.79 in1008.8 mb 0.00 in0.0 mm 0.00 in0.0 mm 0.00 in0.0 mm
06:00 AM 42.4°F5.8°C 41.4°F5.2°C 96% Calm Calm 2.2 mph3.5 kmh 29.79 in1008.8 mb 0.00 in0.0 mm 0.00 in0.0 mm 0.00 in0.0 mm
06:05 AM 42.4°F5.8°C 41.4°F5.2°C 96% Calm Calm 1.6 mph2.6 kmh 29.79 in1008.8 mb 0.00 in0.0 mm 0.00 in0.0 mm 0.00 in0.0 mm
06:10 AM 42.4°F5.8°C 41.4°F5.2°C 96% 0.7 mph E1.1 kmh E 1.6 mph2.6 kmh 29.79 in1008.8 mb 0.00 in0.0 mm 0.00 in0.0 mm 0.00 in0.0 mm
06:15 AM 42.4°F5.8°C 41.4°F5.2°C 96% 0.7 mph E1.1 kmh E 2.2 mph3.5 kmh 29.78 in1008.5 mb 0.00 in0.0 mm 0.00 in0.0 mm 0.00 in0.0 mm
06:20 AM 42.3°F5.7°C 41.2°F5.1°C 96% 0.7 mph E1.1 kmh E 2.2 mph3.5 kmh 29.78 in1008.5 mb 0.00 in0.0 mm 0.00 in0.0 mm 0.00 in0.0 mm
06:25 AM 42.3°F5.7°C 41.2°F5.1°C 96% 0.7 mph E1.1 kmh E 2.2 mph3.5 kmh 29.79 in1008.8 mb 0.00 in0.0 mm 0.00 in0.0 mm 0.00 in0.0 mm
06:30 AM 42.3°F5.7°C 41.2°F5.1°C 96% Calm Calm 2.2 mph3.5 kmh 29.78 in1008.5 mb 0.00 in0.0 mm 0.00 in0.0 mm 0.00 in0.0 mm
06:35 AM 42.3°F5.7°C 41.2°F5.1°C 96% 1.6 mph SE2.6 kmh SE 3.1 mph5.0 kmh 29.78 in1008.5 mb 0.00 in0.0 mm 0.00 in0.0 mm 0.00 in0.0 mm
06:40 AM 42.3°F5.7°C 41.2°F5.1°C 96% Calm Calm 3.1 mph5.0 kmh 29.78 in1008.5 mb 0.01 in0.3 mm 0.12 in3.0 mm 0.01 in0.3 mm
06:45 AM 42.3°F5.7°C 41.2°F5.1°C 96% 0.7 mph E1.1 kmh E 3.1 mph5.0 kmh 29.78 in1008.5 mb 0.01 in0.3 mm 0.00 in0.0 mm 0.01 in0.3 mm
06:50 AM 42.3°F5.7°C 41.2°F5.1°C 96% Calm Calm 3.1 mph5.0 kmh 29.78 in1008.5 mb 0.01 in0.3 mm 0.00 in0.0 mm 0.01 in0.3 mm
06:55 AM 42.3°F5.7°C 41.2°F5.1°C 96% Calm Calm 2.2 mph3.5 kmh 29.78 in1008.5 mb 0.01 in0.3 mm 0.00 in0.0 mm 0.01 in0.3 mm
07:00 AM 42.3°F5.7°C 41.5°F5.3°C 97% 1.6 mph E2.6 kmh E 2.2 mph3.5 kmh 29.78 in1008.5 mb 0.01 in0.3 mm 0.00 in0.0 mm 0.01 in0.3 mm
07:05 AM 42.3°F5.7°C 41.5°F5.3°C 97% 2.2 mph N3.5 kmh N 3.8 mph6.1 kmh 29.78 in1008.5 mb 0.01 in0.3 mm 0.00 in0.0 mm 0.01 in0.3 mm
07:10 AM 42.3°F5.7°C 41.5°F5.3°C 97% Calm Calm 3.8 mph6.1 kmh 29.78 in1008.5 mb 0.01 in0.3 mm 0.00 in0.0 mm 0.01 in0.3 mm
07:20 AM 42.4°F5.8°C 41.7°F5.4°C 97% 0.7 mph N1.1 kmh N 3.1 mph5.0 kmh 29.78 in1008.5 mb 0.02 in0.5 mm 0.06 in1.5 mm 0.02 in0.5 mm
07:25 AM 42.4°F5.8°C 41.7°F5.4°C 97% Calm Calm 3.1 mph5.0 kmh 29.77 in1008.1 mb 0.05 in1.3 mm 0.36 in9.1 mm 0.05 in1.3 mm
07:30 AM 42.4°F5.8°C 41.7°F5.4°C 97% 0.7 mph E1.1 kmh E 3.1 mph5.0 kmh 29.77 in1008.1 mb 0.05 in1.3 mm 0.00 in0.0 mm 0.05 in1.3 mm
07:35 AM 42.4°F5.8°C 41.7°F5.4°C 97% Calm Calm 3.1 mph5.0 kmh 29.77 in1008.1 mb 0.05 in1.3 mm 0.00 in0.0 mm 0.05 in1.3 mm
07:40 AM 42.4°F5.8°C 41.7°F5.4°C 97% Calm Calm 2.2 mph3.5 kmh 29.78 in1008.5 mb 0.04 in1.0 mm 0.00 in0.0 mm 0.05 in1.3 mm
07:45 AM 42.3°F5.7°C 41.7°F5.4°C 98% Calm Calm 1.6 mph2.6 kmh 29.78 in1008.5 mb 0.04 in1.0 mm 0.00 in0.0 mm 0.05 in1.3 mm
07:50 AM 42.4°F5.8°C 41.9°F5.5°C 98% Calm Calm 1.6 mph2.6 kmh 29.78 in1008.5 mb 0.06 in1.5 mm 0.24 in6.1 mm 0.07 in1.8 mm
07:55 AM 42.4°F5.8°C 41.9°F5.5°C 98% Calm Calm 1.6 mph2.6 kmh 29.78 in1008.5 mb 0.08 in2.0 mm 0.24 in6.1 mm 0.09 in2.3 mm
08:05 AM 42.3°F5.7°C 41.7°F5.4°C 98% Calm Calm -- 29.78 in1008.5 mb 0.11 in2.8 mm 0.04 in1.0 mm 0.12 in3.0 mm
08:10 AM 42.3°F5.7°C 41.7°F5.4°C 98% Calm Calm -- 29.78 in1008.5 mb 0.11 in2.8 mm 0.00 in0.0 mm 0.12 in3.0 mm
08:15 AM 42.4°F5.8°C 41.9°F5.5°C 98% Calm Calm -- 29.78 in1008.5 mb 0.09 in2.3 mm 0.00 in0.0 mm 0.12 in3.0 mm
08:20 AM 42.4°F5.8°C 41.9°F5.5°C 98% 1.6 mph S2.6 kmh S 3.1 mph5.0 kmh 29.78 in1008.5 mb 0.09 in2.3 mm 0.00 in0.0 mm 0.12 in3.0 mm
08:25 AM 42.4°F5.8°C 41.9°F5.5°C 98% 1.6 mph S2.6 kmh S 3.8 mph6.1 kmh 29.78 in1008.5 mb 0.07 in1.8 mm 0.00 in0.0 mm 0.12 in3.0 mm
08:30 AM 42.4°F5.8°C 41.9°F5.5°C 98% 2.2 mph S3.5 kmh S 3.8 mph6.1 kmh 29.78 in1008.5 mb 0.07 in1.8 mm 0.00 in0.0 mm 0.12 in3.0 mm
08:35 AM 42.4°F5.8°C 41.9°F5.5°C 98% 0.7 mph WSW1.1 kmh WSW 3.8 mph6.1 kmh 29.78 in1008.5 mb 0.09 in2.3 mm 0.24 in6.1 mm 0.14 in3.6 mm
08:40 AM 42.4°F5.8°C 41.9°F5.5°C 98% Calm Calm 3.1 mph5.0 kmh 29.78 in1008.5 mb 0.09 in2.3 mm 0.00 in0.0 mm 0.14 in3.6 mm
08:45 AM 42.4°F5.8°C 41.9°F5.5°C 98% 0.7 mph W1.1 kmh W 2.2 mph3.5 kmh 29.78 in1008.5 mb 0.09 in2.3 mm 0.00 in0.0 mm 0.14 in3.6 mm
08:50 AM 42.4°F5.8°C 42.2°F5.7°C 99% Calm Calm 2.2 mph3.5 kmh 29.78 in1008.5 mb 0.07 in1.8 mm 0.00 in0.0 mm 0.17 in4.3 mm
08:55 AM 42.4°F5.8°C 42.2°F5.7°C 99% Calm Calm 2.2 mph3.5 kmh 29.78 in1008.5 mb 0.07 in1.8 mm 0.00 in0.0 mm 0.17 in4.3 mm
09:00 AM 42.4°F5.8°C 42.2°F5.7°C 99% Calm Calm 2.2 mph3.5 kmh 29.78 in1008.5 mb 0.07 in1.8 mm 0.00 in0.0 mm 0.17 in4.3 mm
09:05 AM 42.4°F5.8°C 42.2°F5.7°C 99% Calm Calm 2.2 mph3.5 kmh 29.78 in1008.5 mb 0.05 in1.3 mm 0.00 in0.0 mm 0.17 in4.3 mm
09:10 AM 42.4°F5.8°C 42.2°F5.7°C 99% Calm Calm 1.6 mph2.6 kmh 29.78 in1008.5 mb 0.05 in1.3 mm 0.00 in0.0 mm 0.17 in4.3 mm
09:15 AM 42.4°F5.8°C 42.2°F5.7°C 99% Calm Calm 1.6 mph2.6 kmh 29.78 in1008.5 mb 0.07 in1.8 mm 0.24 in6.1 mm 0.19 in4.8 mm
09:20 AM 42.4°F5.8°C 42.2°F5.7°C 99% Calm Calm -- 29.78 in1008.5 mb 0.07 in1.8 mm 0.00 in0.0 mm 0.19 in4.8 mm
09:25 AM 42.4°F5.8°C 42.2°F5.7°C 99% Calm Calm -- 29.78 in1008.5 mb 0.07 in1.8 mm 0.00 in0.0 mm 0.19 in4.8 mm
09:30 AM 42.4°F5.8°C 42.2°F5.7°C 99% Calm Calm -- 29.79 in1008.8 mb 0.07 in1.8 mm 0.00 in0.0 mm 0.19 in4.8 mm
09:35 AM 42.6°F5.9°C 42.4°F5.8°C 99% Calm Calm -- 29.79 in1008.8 mb 0.05 in1.3 mm 0.00 in0.0 mm 0.19 in4.8 mm
09:40 AM 42.6°F5.9°C 42.4°F5.8°C 99% 0.7 mph WNW1.1 kmh WNW 1.6 mph2.6 kmh 29.79 in1008.8 mb 0.05 in1.3 mm 0.00 in0.0 mm 0.19 in4.8 mm
09:45 AM 42.6°F5.9°C 42.4°F5.8°C 99% Calm Calm 2.2 mph3.5 kmh 29.78 in1008.5 mb 0.05 in1.3 mm 0.00 in0.0 mm 0.19 in4.8 mm
09:50 AM 42.6°F5.9°C 42.4°F5.8°C 99% 0.7 mph WNW1.1 kmh WNW 2.2 mph3.5 kmh 29.78 in1008.5 mb 0.02 in0.5 mm 0.00 in0.0 mm 0.19 in4.8 mm
09:55 AM 42.8°F6.0°C 42.3°F5.7°C 98% Calm Calm 2.2 mph3.5 kmh 29.79 in1008.8 mb 0.02 in0.5 mm 0.00 in0.0 mm 0.19 in4.8 mm
10:00 AM 42.8°F6.0°C 42.3°F5.7°C 98% Calm Calm 0.7 mph1.1 kmh 29.78 in1008.5 mb 0.02 in0.5 mm 0.00 in0.0 mm 0.19 in4.8 mm
10:05 AM 42.8°F6.0°C 42.3°F5.7°C 98% Calm Calm -- 29.78 in1008.5 mb 0.02 in0.5 mm 0.00 in0.0 mm 0.19 in4.8 mm
10:10 AM 43.0°F6.1°C 42.5°F5.8°C 98% Calm Calm -- 29.78 in1008.5 mb 0.02 in0.5 mm 0.00 in0.0 mm 0.19 in4.8 mm
10:15 AM 43.2°F6.2°C 42.6°F5.9°C 98% Calm Calm 1.6 mph2.6 kmh 29.78 in1008.5 mb 0.00 in0.0 mm 0.00 in0.0 mm 0.19 in4.8 mm
10:20 AM 43.2°F6.2°C 42.6°F5.9°C 98% Calm Calm 1.6 mph2.6 kmh 29.79 in1008.8 mb 0.00 in0.0 mm 0.00 in0.0 mm 0.19 in4.8 mm
10:25 AM 43.3°F6.3°C 42.8°F6.0°C 98% Calm Calm 1.6 mph2.6 kmh 29.78 in1008.5 mb 0.00 in0.0 mm 0.00 in0.0 mm 0.19 in4.8 mm
10:30 AM 43.3°F6.3°C 42.8°F6.0°C 98% Calm Calm 2.2 mph3.5 kmh 29.78 in1008.5 mb 0.02 in0.5 mm 0.24 in6.1 mm 0.21 in5.3 mm
10:35 AM 43.7°F6.5°C 43.2°F6.2°C 98% Calm Calm 2.2 mph3.5 kmh 29.78 in1008.5 mb 0.02 in0.5 mm 0.00 in0.0 mm 0.21 in5.3 mm
10:40 AM 43.7°F6.5°C 43.2°F6.2°C 98% Calm Calm 0.7 mph1.1 kmh 29.78 in1008.5 mb 0.02 in0.5 mm 0.00 in0.0 mm 0.21 in5.3 mm
10:45 AM 43.7°F6.5°C 43.2°F6.2°C 98% Calm Calm 0.7 mph1.1 kmh 29.78 in1008.5 mb 0.02 in0.5 mm 0.00 in0.0 mm 0.21 in5.3 mm
10:50 AM 43.9°F6.6°C 43.4°F6.3°C 98% Calm Calm -- 29.78 in1008.5 mb 0.02 in0.5 mm 0.00 in0.0 mm 0.21 in5.3 mm
10:55 AM 43.9°F6.6°C 43.4°F6.3°C 98% 0.7 mph S1.1 kmh S 2.2 mph3.5 kmh 29.78 in1008.5 mb 0.02 in0.5 mm 0.00 in0.0 mm 0.21 in5.3 mm
11:00 AM 43.9°F6.6°C 43.4°F6.3°C 98% Calm Calm 2.2 mph3.5 kmh 29.78 in1008.5 mb 0.02 in0.5 mm 0.00 in0.0 mm 0.21 in5.3 mm
11:05 AM 44.2°F6.8°C 43.7°F6.5°C 98% Calm Calm 2.2 mph3.5 kmh 29.78 in1008.5 mb 0.02 in0.5 mm 0.00 in0.0 mm 0.21 in5.3 mm
11:10 AM 44.2°F6.8°C 43.7°F6.5°C 98% Calm Calm 3.1 mph5.0 kmh 29.78 in1008.5 mb 0.02 in0.5 mm 0.00 in0.0 mm 0.21 in5.3 mm
11:15 AM 44.6°F7.0°C 43.8°F6.6°C 97% 3.1 mph N5.0 kmh N 4.5 mph7.2 kmh 29.78 in1008.5 mb 0.02 in0.5 mm 0.00 in0.0 mm 0.21 in5.3 mm
11:20 AM 44.8°F7.1°C 44.0°F6.7°C 97% 0.7 mph N1.1 kmh N 4.5 mph7.2 kmh 29.78 in1008.5 mb 0.02 in0.5 mm 0.00 in0.0 mm 0.21 in5.3 mm
11:25 AM 44.8°F7.1°C 44.0°F6.7°C 97% 2.2 mph NNW3.5 kmh NNW 4.5 mph7.2 kmh 29.78 in1008.5 mb 0.02 in0.5 mm 0.00 in0.0 mm 0.21 in5.3 mm
11:30 AM 45.0°F7.2°C 44.2°F6.8°C 97% Calm Calm 4.5 mph7.2 kmh 29.78 in1008.5 mb 0.00 in0.0 mm 0.00 in0.0 mm 0.21 in5.3 mm
11:35 AM 45.3°F7.4°C 44.5°F6.9°C 97% 1.6 mph NW2.6 kmh NW 4.5 mph7.2 kmh 29.78 in1008.5 mb 0.00 in0.0 mm 0.00 in0.0 mm 0.21 in5.3 mm
11:40 AM 45.5°F7.5°C 44.7°F7.1°C 97% 3.8 mph WNW6.1 kmh WNW 5.4 mph8.7 kmh 29.78 in1008.5 mb 0.00 in0.0 mm 0.00 in0.0 mm 0.21 in5.3 mm
11:45 AM 45.7°F7.6°C 44.9°F7.2°C 97% 3.1 mph W5.0 kmh W 6.0 mph9.7 kmh 29.78 in1008.5 mb 0.00 in0.0 mm 0.00 in0.0 mm 0.21 in5.3 mm
11:50 AM 46.0°F7.8°C 45.2°F7.3°C 97% 4.5 mph WSW7.2 kmh WSW 9.2 mph14.8 kmh 29.78 in1008.5 mb 0.00 in0.0 mm 0.00 in0.0 mm 0.21 in5.3 mm
11:55 AM 46.6°F8.1°C 46.3°F7.9°C 99% 5.4 mph WSW8.7 kmh WSW 9.2 mph14.8 kmh 29.78 in1008.5 mb 0.00 in0.0 mm 0.00 in0.0 mm 0.21 in5.3 mm
12:00 PM 47.1°F8.4°C 46.9°F8.3°C 99% 4.5 mph WNW7.2 kmh WNW 9.2 mph14.8 kmh 29.78 in1008.5 mb 0.00 in0.0 mm 0.00 in0.0 mm 0.21 in5.3 mm
12:05 PM 47.1°F8.4°C 46.9°F8.3°C 99% 4.5 mph NW7.2 kmh NW 7.6 mph12.2 kmh 29.78 in1008.5 mb 0.00 in0.0 mm 0.00 in0.0 mm 0.21 in5.3 mm
12:10 PM 47.5°F8.6°C 47.2°F8.4°C 99% 5.4 mph WNW8.7 kmh WNW 9.8 mph15.8 kmh 29.77 in1008.1 mb 0.00 in0.0 mm 0.00 in0.0 mm 0.21 in5.3 mm
12:15 PM 48.0°F8.9°C 47.8°F8.8°C 99% 5.4 mph WNW8.7 kmh WNW 9.8 mph15.8 kmh 29.78 in1008.5 mb 0.00 in0.0 mm 0.00 in0.0 mm 0.21 in5.3 mm
12:20 PM 48.4°F9.1°C 47.8°F8.8°C 98% 6.0 mph NW9.7 kmh NW 9.2 mph14.8 kmh 29.78 in1008.5 mb 0.00 in0.0 mm 0.00 in0.0 mm 0.21 in5.3 mm
12:25 PM 48.6°F9.2°C 48.0°F8.9°C 98% 6.0 mph NW9.7 kmh NW 10.7 mph17.2 kmh 29.77 in1008.1 mb 0.00 in0.0 mm 0.00 in0.0 mm 0.21 in5.3 mm
12:30 PM 49.1°F9.5°C 48.6°F9.2°C 98% 3.1 mph WNW5.0 kmh WNW 11.4 mph18.3 kmh 29.77 in1008.1 mb 0.00 in0.0 mm 0.00 in0.0 mm 0.21 in5.3 mm
12:35 PM 49.5°F9.7°C 48.6°F9.2°C 97% 8.3 mph NW13.4 kmh NW 13.6 mph21.9 kmh 29.77 in1008.1 mb 0.00 in0.0 mm 0.00 in0.0 mm 0.21 in5.3 mm
12:40 PM 49.8°F9.9°C 48.7°F9.3°C 96% 6.0 mph NW9.7 kmh NW 16.8 mph27.0 kmh 29.77 in1008.1 mb 0.00 in0.0 mm 0.00 in0.0 mm 0.21 in5.3 mm
12:45 PM 50.0°F10.0°C 48.1°F8.9°C 93% 7.6 mph WNW12.2 kmh WNW 16.8 mph27.0 kmh 29.77 in1008.1 mb 0.00 in0.0 mm 0.00 in0.0 mm 0.21 in5.3 mm
12:50 PM 50.4°F10.2°C 47.8°F8.8°C 91% 8.3 mph WNW13.4 kmh WNW 13.6 mph21.9 kmh 29.77 in1008.1 mb 0.00 in0.0 mm 0.00 in0.0 mm 0.21 in5.3 mm
12:55 PM 50.9°F10.5°C 47.5°F8.6°C 88% 8.3 mph WNW13.4 kmh WNW 13.6 mph21.9 kmh 29.76 in1007.8 mb 0.00 in0.0 mm 0.00 in0.0 mm 0.21 in5.3 mm
01:00 PM 52.0°F11.1°C 47.6°F8.7°C 85% 5.4 mph NW8.7 kmh NW 13.6 mph21.9 kmh 29.76 in1007.8 mb 0.00 in0.0 mm 0.00 in0.0 mm 0.21 in5.3 mm
01:05 PM 52.5°F11.4°C 47.5°F8.6°C 83% 10.7 mph NW17.2 kmh NW 14.5 mph23.3 kmh 29.76 in1007.8 mb 0.00 in0.0 mm 0.00 in0.0 mm 0.21 in5.3 mm
01:10 PM 52.9°F11.6°C 46.9°F8.3°C 80% 11.4 mph NW18.3 kmh NW 14.5 mph23.3 kmh 29.77 in1008.1 mb 0.00 in0.0 mm 0.00 in0.0 mm 0.21 in5.3 mm
01:15 PM 52.5°F11.4°C 45.5°F7.5°C 77% 8.3 mph NW13.4 kmh NW 15.9 mph25.6 kmh 29.76 in1007.8 mb 0.00 in0.0 mm 0.00 in0.0 mm 0.21 in5.3 mm
01:20 PM 52.2°F11.2°C 44.8°F7.1°C 76% 7.6 mph NW12.2 kmh NW 15.9 mph25.6 kmh 29.76 in1007.8 mb 0.00 in0.0 mm 0.00 in0.0 mm 0.21 in5.3 mm
01:25 PM 51.8°F11.0°C 44.5°F6.9°C 76% 8.3 mph NW13.4 kmh NW 14.5 mph23.3 kmh 29.76 in1007.8 mb 0.00 in0.0 mm 0.00 in0.0 mm 0.21 in5.3 mm
01:30 PM 51.3°F10.7°C 44.6°F7.0°C 78% 4.5 mph NW7.2 kmh NW 11.4 mph18.3 kmh 29.76 in1007.8 mb 0.00 in0.0 mm 0.00 in0.0 mm 0.21 in5.3 mm
01:35 PM 51.1°F10.6°C 44.8°F7.1°C 79% 7.6 mph WNW12.2 kmh WNW 11.4 mph18.3 kmh 29.76 in1007.8 mb 0.00 in0.0 mm 0.00 in0.0 mm 0.21 in5.3 mm
01:40 PM 50.9°F10.5°C 44.6°F7.0°C 79% 5.4 mph WNW8.7 kmh WNW 14.5 mph23.3 kmh 29.75 in1007.5 mb 0.00 in0.0 mm 0.00 in0.0 mm 0.21 in5.3 mm
01:45 PM 50.5°F10.3°C 44.3°F6.8°C 79% 7.6 mph WNW12.2 kmh WNW 15.2 mph24.5 kmh 29.75 in1007.5 mb 0.00 in0.0 mm 0.00 in0.0 mm 0.21 in5.3 mm
01:50 PM 50.5°F10.3°C 44.3°F6.8°C 79% 10.7 mph NW17.2 kmh NW 17.4 mph28.0 kmh 29.75 in1007.5 mb 0.00 in0.0 mm 0.00 in0.0 mm 0.21 in5.3 mm
01:55 PM 50.4°F10.2°C 43.8°F6.6°C 78% 8.3 mph NW13.4 kmh NW 17.4 mph28.0 kmh 29.76 in1007.8 mb 0.00 in0.0 mm 0.00 in0.0 mm 0.21 in5.3 mm
02:00 PM 50.4°F10.2°C 43.4°F6.3°C 77% 6.0 mph NW9.7 kmh NW 15.2 mph24.5 kmh 29.75 in1007.5 mb 0.00 in0.0 mm 0.00 in0.0 mm 0.21 in5.3 mm
02:05 PM 50.4°F10.2°C 43.4°F6.3°C 77% 6.0 mph WNW9.7 kmh WNW 13.6 mph21.9 kmh 29.76 in1007.8 mb 0.00 in0.0 mm 0.00 in0.0 mm 0.21 in5.3 mm
02:10 PM 50.4°F10.2°C 43.4°F6.3°C 77% 6.9 mph W11.1 kmh W 12.1 mph19.5 kmh 29.76 in1007.8 mb 0.00 in0.0 mm 0.00 in0.0 mm 0.21 in5.3 mm
02:15 PM 50.2°F10.1°C 43.3°F6.3°C 77% 10.7 mph WNW17.2 kmh WNW 15.9 mph25.6 kmh 29.76 in1007.8 mb 0.00 in0.0 mm 0.00 in0.0 mm 0.21 in5.3 mm
02:20 PM 50.0°F10.0°C 42.4°F5.8°C 75% 11.4 mph WNW18.3 kmh WNW 18.3 mph29.5 kmh 29.76 in1007.8 mb 0.00 in0.0 mm 0.00 in0.0 mm 0.21 in5.3 mm
02:25 PM 49.8°F9.9°C 42.2°F5.7°C 75% 9.8 mph WNW15.8 kmh WNW 22.8 mph36.7 kmh 29.76 in1007.8 mb 0.00 in0.0 mm 0.00 in0.0 mm 0.21 in5.3 mm
02:30 PM 49.6°F9.8°C 41.7°F5.4°C 74% 13.6 mph NW21.9 kmh NW 22.8 mph36.7 kmh 29.76 in1007.8 mb 0.00 in0.0 mm 0.00 in0.0 mm 0.21 in5.3 mm
02:35 PM 49.6°F9.8°C 41.7°F5.4°C 74% 9.2 mph NW14.8 kmh NW 19.0 mph30.6 kmh 29.76 in1007.8 mb 0.00 in0.0 mm 0.00 in0.0 mm 0.21 in5.3 mm
02:40 PM 50.0°F10.0°C 41.7°F5.4°C 73% 10.7 mph NW17.2 kmh NW 19.0 mph30.6 kmh 29.76 in1007.8 mb 0.00 in0.0 mm 0.00 in0.0 mm 0.21 in5.3 mm
02:45 PM 50.5°F10.3°C 42.2°F5.7°C 73% 12.1 mph NW19.5 kmh NW 18.3 mph29.5 kmh 29.76 in1007.8 mb 0.00 in0.0 mm 0.00 in0.0 mm 0.21 in5.3 mm
02:50 PM 50.9°F10.5°C 42.2°F5.7°C 72% 9.2 mph NW14.8 kmh NW 15.9 mph25.6 kmh 29.75 in1007.5 mb 0.00 in0.0 mm 0.00 in0.0 mm 0.21 in5.3 mm
02:55 PM 51.1°F10.6°C 42.0°F5.6°C 71% 7.6 mph NW12.2 kmh NW 16.8 mph27.0 kmh 29.75 in1007.5 mb 0.00 in0.0 mm 0.00 in0.0 mm 0.21 in5.3 mm
03:00 PM 51.4°F10.8°C 42.4°F5.8°C 71% 6.9 mph NW11.1 kmh NW 16.8 mph27.0 kmh 29.75 in1007.5 mb 0.00 in0.0 mm 0.00 in0.0 mm 0.21 in5.3 mm
03:05 PM 51.8°F11.0°C 42.0°F5.6°C 69% 8.3 mph NW13.4 kmh NW 14.5 mph23.3 kmh 29.75 in1007.5 mb 0.00 in0.0 mm 0.00 in0.0 mm 0.21 in5.3 mm
03:10 PM 51.8°F11.0°C 41.2°F5.1°C 67% 9.8 mph NNW15.8 kmh NNW 15.2 mph24.5 kmh 29.75 in1007.5 mb 0.00 in0.0 mm 0.00 in0.0 mm 0.21 in5.3 mm
03:15 PM 51.3°F10.7°C 40.7°F4.8°C 67% 6.0 mph NW9.7 kmh NW 15.2 mph24.5 kmh 29.75 in1007.5 mb 0.00 in0.0 mm 0.00 in0.0 mm 0.21 in5.3 mm
03:20 PM 50.9°F10.5°C 40.7°F4.8°C 68% 5.4 mph NW8.7 kmh NW 15.2 mph24.5 kmh 29.75 in1007.5 mb 0.00 in0.0 mm 0.00 in0.0 mm 0.21 in5.3 mm
03:25 PM 50.9°F10.5°C 40.7°F4.8°C 68% 6.9 mph WNW11.1 kmh WNW 15.2 mph24.5 kmh 29.75 in1007.5 mb 0.00 in0.0 mm 0.00 in0.0 mm 0.21 in5.3 mm
03:30 PM 50.7°F10.4°C 40.6°F4.8°C 68% 8.3 mph W13.4 kmh W 14.5 mph23.3 kmh 29.76 in1007.8 mb 0.00 in0.0 mm 0.00 in0.0 mm 0.21 in5.3 mm
03:35 PM 50.5°F10.3°C 40.8°F4.9°C 69% 8.3 mph WNW13.4 kmh WNW 14.5 mph23.3 kmh 29.76 in1007.8 mb 0.00 in0.0 mm 0.00 in0.0 mm 0.21 in5.3 mm
03:40 PM 50.2°F10.1°C 40.0°F4.4°C 68% 9.8 mph NW15.8 kmh NW 15.2 mph24.5 kmh 29.77 in1008.1 mb 0.00 in0.0 mm 0.00 in0.0 mm 0.21 in5.3 mm
03:45 PM 50.0°F10.0°C 39.9°F4.4°C 68% 10.7 mph NW17.2 kmh NW 15.9 mph25.6 kmh 29.77 in1008.1 mb 0.00 in0.0 mm 0.00 in0.0 mm 0.21 in5.3 mm
03:50 PM 49.8°F9.9°C 40.1°F4.5°C 69% 7.6 mph NW12.2 kmh NW 15.9 mph25.6 kmh 29.76 in1007.8 mb 0.00 in0.0 mm 0.00 in0.0 mm 0.21 in5.3 mm
03:55 PM 49.6°F9.8°C 39.5°F4.2°C 68% 6.0 mph WNW9.7 kmh WNW 15.9 mph25.6 kmh 29.77 in1008.1 mb 0.00 in0.0 mm 0.00 in0.0 mm 0.21 in5.3 mm
04:00 PM 50.0°F10.0°C 39.9°F4.4°C 68% 6.0 mph WNW9.7 kmh WNW 15.2 mph24.5 kmh 29.77 in1008.1 mb 0.00 in0.0 mm 0.00 in0.0 mm 0.21 in5.3 mm
04:05 PM 50.0°F10.0°C 39.9°F4.4°C 68% 6.0 mph NW9.7 kmh NW 11.4 mph18.3 kmh 29.77 in1008.1 mb 0.00 in0.0 mm 0.00 in0.0 mm 0.21 in5.3 mm
04:10 PM 50.5°F10.3°C 40.4°F4.7°C 68% 6.0 mph NW9.7 kmh NW 10.7 mph17.2 kmh 29.77 in1008.1 mb 0.00 in0.0 mm 0.00 in0.0 mm 0.21 in5.3 mm
04:15 PM 50.5°F10.3°C 40.4°F4.7°C 68% 6.0 mph NW9.7 kmh NW 13.0 mph20.9 kmh 29.77 in1008.1 mb 0.00 in0.0 mm 0.00 in0.0 mm 0.21 in5.3 mm
04:20 PM 50.2°F10.1°C 39.7°F4.3°C 67% 7.6 mph WNW12.2 kmh WNW 13.0 mph20.9 kmh 29.76 in1007.8 mb 0.00 in0.0 mm 0.00 in0.0 mm 0.21 in5.3 mm
04:25 PM 50.0°F10.0°C 39.5°F4.2°C 67% 6.9 mph W11.1 kmh W 15.2 mph24.5 kmh 29.76 in1007.8 mb 0.00 in0.0 mm 0.00 in0.0 mm 0.21 in5.3 mm
04:30 PM 50.0°F10.0°C 39.1°F3.9°C 66% 5.4 mph W8.7 kmh W 15.2 mph24.5 kmh 29.76 in1007.8 mb 0.00 in0.0 mm 0.00 in0.0 mm 0.21 in5.3 mm
04:35 PM 49.8°F9.9°C 39.3°F4.1°C 67% 8.3 mph W13.4 kmh W 13.6 mph21.9 kmh 29.76 in1007.8 mb 0.00 in0.0 mm 0.00 in0.0 mm 0.21 in5.3 mm
04:40 PM 49.6°F9.8°C 39.5°F4.2°C 68% 3.8 mph NW6.1 kmh NW 13.6 mph21.9 kmh 29.77 in1008.1 mb 0.00 in0.0 mm 0.00 in0.0 mm 0.21 in5.3 mm
04:45 PM 49.6°F9.8°C 39.5°F4.2°C 68% 6.0 mph NW9.7 kmh NW 14.5 mph23.3 kmh 29.77 in1008.1 mb 0.00 in0.0 mm 0.00 in0.0 mm 0.21 in5.3 mm
04:50 PM 49.3°F9.6°C 39.6°F4.2°C 69% 3.8 mph NW6.1 kmh NW 14.5 mph23.3 kmh 29.77 in1008.1 mb 0.00 in0.0 mm 0.00 in0.0 mm 0.21 in5.3 mm
04:55 PM 49.3°F9.6°C 39.9°F4.4°C 70% 5.4 mph NW8.7 kmh NW 10.7 mph17.2 kmh 29.77 in1008.1 mb 0.00 in0.0 mm 0.00 in0.0 mm 0.21 in5.3 mm
05:00 PM 49.3°F9.6°C 39.6°F4.2°C 69% 3.1 mph WNW5.0 kmh WNW 8.3 mph13.4 kmh 29.76 in1007.8 mb 0.00 in0.0 mm 0.00 in0.0 mm 0.21 in5.3 mm
05:05 PM 49.3°F9.6°C 39.6°F4.2°C 69% 3.8 mph W6.1 kmh W 6.0 mph9.7 kmh 29.76 in1007.8 mb 0.00 in0.0 mm 0.00 in0.0 mm 0.21 in5.3 mm
05:10 PM 49.3°F9.6°C 39.2°F4.0°C 68% 1.6 mph WSW2.6 kmh WSW 6.9 mph11.1 kmh 29.76 in1007.8 mb 0.00 in0.0 mm 0.00 in0.0 mm 0.21 in5.3 mm
05:15 PM 49.5°F9.7°C 39.3°F4.1°C 68% 2.2 mph SW3.5 kmh SW 6.9 mph11.1 kmh 29.76 in1007.8 mb 0.00 in0.0 mm 0.00 in0.0 mm 0.21 in5.3 mm
05:20 PM 49.5°F9.7°C 39.3°F4.1°C 68% 3.1 mph WSW5.0 kmh WSW 6.0 mph9.7 kmh 29.76 in1007.8 mb 0.00 in0.0 mm 0.00 in0.0 mm 0.21 in5.3 mm
05:25 PM 49.3°F9.6°C 38.8°F3.8°C 67% 1.6 mph W2.6 kmh W 6.0 mph9.7 kmh 29.76 in1007.8 mb 0.00 in0.0 mm 0.00 in0.0 mm 0.21 in5.3 mm
05:30 PM 49.3°F9.6°C 39.2°F4.0°C 68% 1.6 mph WNW2.6 kmh WNW 4.5 mph7.2 kmh 29.76 in1007.8 mb 0.00 in0.0 mm 0.00 in0.0 mm 0.21 in5.3 mm
05:35 PM 49.1°F9.5°C 39.0°F3.9°C 68% 2.2 mph WNW3.5 kmh WNW 3.1 mph5.0 kmh 29.77 in1008.1 mb 0.00 in0.0 mm 0.00 in0.0 mm 0.21 in5.3 mm
05:40 PM 48.7°F9.3°C 39.4°F4.1°C 70% 1.6 mph WNW2.6 kmh WNW 3.8 mph6.1 kmh 29.77 in1008.1 mb 0.00 in0.0 mm 0.00 in0.0 mm 0.21 in5.3 mm
05:45 PM 48.6°F9.2°C 39.6°F4.2°C 71% 5.4 mph WNW8.7 kmh WNW 8.3 mph13.4 kmh 29.78 in1008.5 mb 0.00 in0.0 mm 0.00 in0.0 mm 0.21 in5.3 mm
05:50 PM 48.2°F9.0°C 39.6°F4.2°C 72% 6.0 mph NW9.7 kmh NW 9.8 mph15.8 kmh 29.78 in1008.5 mb 0.00 in0.0 mm 0.00 in0.0 mm 0.21 in5.3 mm
05:55 PM 47.7°F8.7°C 40.1°F4.5°C 75% 6.0 mph NW9.7 kmh NW 11.4 mph18.3 kmh 29.78 in1008.5 mb 0.00 in0.0 mm 0.00 in0.0 mm 0.21 in5.3 mm
06:00 PM 47.3°F8.5°C 39.8°F4.3°C 75% 3.1 mph WNW5.0 kmh WNW 11.4 mph18.3 kmh 29.78 in1008.5 mb 0.00 in0.0 mm 0.00 in0.0 mm 0.21 in5.3 mm
06:05 PM 47.3°F8.5°C 39.8°F4.3°C 75% 3.1 mph WSW5.0 kmh WSW 9.8 mph15.8 kmh 29.78 in1008.5 mb 0.00 in0.0 mm 0.00 in0.0 mm 0.21 in5.3 mm
06:10 PM 47.3°F8.5°C 39.4°F4.1°C 74% 3.8 mph W6.1 kmh W 9.8 mph15.8 kmh 29.78 in1008.5 mb 0.00 in0.0 mm 0.00 in0.0 mm 0.21 in5.3 mm
06:15 PM 47.1°F8.4°C 39.3°F4.1°C 74% 4.5 mph WNW7.2 kmh WNW 9.8 mph15.8 kmh 29.78 in1008.5 mb 0.00 in0.0 mm 0.00 in0.0 mm 0.21 in5.3 mm
06:20 PM 47.1°F8.4°C 39.3°F4.1°C 74% 6.0 mph W9.7 kmh W 9.2 mph14.8 kmh 29.78 in1008.5 mb 0.00 in0.0 mm 0.00 in0.0 mm 0.21 in5.3 mm
06:25 PM 47.1°F8.4°C 38.9°F3.8°C 73% 8.3 mph W13.4 kmh W 12.1 mph19.5 kmh 29.77 in1008.1 mb 0.00 in0.0 mm 0.00 in0.0 mm 0.21 in5.3 mm
06:30 PM 47.3°F8.5°C 38.7°F3.7°C 72% 3.8 mph W6.1 kmh W 12.1 mph19.5 kmh 29.78 in1008.5 mb 0.00 in0.0 mm 0.00 in0.0 mm 0.21 in5.3 mm
06:35 PM 47.3°F8.5°C 38.7°F3.7°C 72% 3.8 mph W6.1 kmh W 12.1 mph19.5 kmh 29.78 in1008.5 mb 0.00 in0.0 mm 0.00 in0.0 mm 0.21 in5.3 mm
06:40 PM 47.1°F8.4°C 38.9°F3.8°C 73% 3.8 mph WSW6.1 kmh WSW 8.3 mph13.4 kmh 29.78 in1008.5 mb 0.00 in0.0 mm 0.00 in0.0 mm 0.21 in5.3 mm
06:45 PM 47.1°F8.4°C 38.9°F3.8°C 73% 5.4 mph W8.7 kmh W 8.3 mph13.4 kmh 29.77 in1008.1 mb 0.00 in0.0 mm 0.00 in0.0 mm 0.21 in5.3 mm
06:50 PM 46.9°F8.3°C 39.1°F3.9°C 74% 3.1 mph W5.0 kmh W 8.3 mph13.4 kmh 29.78 in1008.5 mb 0.00 in0.0 mm 0.00 in0.0 mm 0.21 in5.3 mm
06:55 PM 46.8°F8.2°C 39.3°F4.1°C 75% 2.2 mph W3.5 kmh W 7.6 mph12.2 kmh 29.78 in1008.5 mb 0.00 in0.0 mm 0.00 in0.0 mm 0.21 in5.3 mm
07:00 PM 46.6°F8.1°C 39.1°F3.9°C 75% 4.5 mph WSW7.2 kmh WSW 10.7 mph17.2 kmh 29.77 in1008.1 mb 0.00 in0.0 mm 0.00 in0.0 mm 0.21 in5.3 mm
07:05 PM 46.6°F8.1°C 39.4°F4.1°C 76% 4.5 mph SW7.2 kmh SW 10.7 mph17.2 kmh 29.78 in1008.5 mb 0.00 in0.0 mm 0.00 in0.0 mm 0.21 in5.3 mm
07:10 PM 46.6°F8.1°C 39.8°F4.3°C 77% 5.4 mph WSW8.7 kmh WSW 10.7 mph17.2 kmh 29.78 in1008.5 mb 0.00 in0.0 mm 0.00 in0.0 mm 0.21 in5.3 mm
07:15 PM 46.6°F8.1°C 39.8°F4.3°C 77% 3.8 mph W6.1 kmh W 9.8 mph15.8 kmh 29.78 in1008.5 mb 0.00 in0.0 mm 0.00 in0.0 mm 0.21 in5.3 mm
07:20 PM 46.6°F8.1°C 39.8°F4.3°C 77% 3.8 mph W6.1 kmh W 9.8 mph15.8 kmh 29.77 in1008.1 mb 0.00 in0.0 mm 0.00 in0.0 mm 0.21 in5.3 mm
07:25 PM 46.6°F8.1°C 40.1°F4.5°C 78% 3.8 mph W6.1 kmh W 6.9 mph11.1 kmh 29.78 in1008.5 mb 0.00 in0.0 mm 0.00 in0.0 mm 0.21 in5.3 mm
07:30 PM 46.4°F8.0°C 39.9°F4.4°C 78% 3.1 mph W5.0 kmh W 6.9 mph11.1 kmh 29.78 in1008.5 mb 0.00 in0.0 mm 0.00 in0.0 mm 0.21 in5.3 mm
07:35 PM 46.4°F8.0°C 40.2°F4.6°C 79% 3.1 mph WNW5.0 kmh WNW 6.9 mph11.1 kmh 29.78 in1008.5 mb 0.00 in0.0 mm 0.00 in0.0 mm 0.21 in5.3 mm
07:40 PM 46.2°F7.9°C 40.4°F4.7°C 80% 4.5 mph NW7.2 kmh NW 6.9 mph11.1 kmh 29.78 in1008.5 mb 0.00 in0.0 mm 0.00 in0.0 mm 0.21 in5.3 mm
07:45 PM 46.2°F7.9°C 40.7°F4.8°C 81% 6.0 mph WNW9.7 kmh WNW 10.7 mph17.2 kmh 29.78 in1008.5 mb 0.00 in0.0 mm 0.00 in0.0 mm 0.21 in5.3 mm
07:50 PM 46.0°F7.8°C 40.5°F4.7°C 81% 6.0 mph W9.7 kmh W 10.7 mph17.2 kmh 29.78 in1008.5 mb 0.00 in0.0 mm 0.00 in0.0 mm 0.21 in5.3 mm
07:55 PM 46.0°F7.8°C 40.5°F4.7°C 81% 4.5 mph W7.2 kmh W 9.2 mph14.8 kmh 29.78 in1008.5 mb 0.00 in0.0 mm 0.00 in0.0 mm 0.21 in5.3 mm
08:00 PM 45.9°F7.7°C 40.7°F4.8°C 82% 4.5 mph WNW7.2 kmh WNW 7.6 mph12.2 kmh 29.78 in1008.5 mb 0.00 in0.0 mm 0.00 in0.0 mm 0.21 in5.3 mm
08:05 PM 45.7°F7.6°C 40.5°F4.7°C 82% 3.8 mph W6.1 kmh W 7.6 mph12.2 kmh 29.78 in1008.5 mb 0.00 in0.0 mm 0.00 in0.0 mm 0.21 in5.3 mm
08:10 PM 45.7°F7.6°C 40.5°F4.7°C 82% 0.7 mph W1.1 kmh W 6.9 mph11.1 kmh 29.78 in1008.5 mb 0.00 in0.0 mm 0.00 in0.0 mm 0.21 in5.3 mm
08:15 PM 45.7°F7.6°C 40.5°F4.7°C 82% 2.2 mph W3.5 kmh W 6.9 mph11.1 kmh 29.78 in1008.5 mb 0.00 in0.0 mm 0.00 in0.0 mm 0.21 in5.3 mm
08:20 PM 45.5°F7.5°C 40.6°F4.8°C 83% 3.8 mph WSW6.1 kmh WSW 7.6 mph12.2 kmh 29.79 in1008.8 mb 0.00 in0.0 mm 0.00 in0.0 mm 0.21 in5.3 mm
08:25 PM 45.5°F7.5°C 40.6°F4.8°C 83% 3.8 mph W6.1 kmh W 7.6 mph12.2 kmh 29.79 in1008.8 mb 0.00 in0.0 mm 0.00 in0.0 mm 0.21 in5.3 mm
08:30 PM 45.5°F7.5°C 40.6°F4.8°C 83% 3.1 mph W5.0 kmh W 6.9 mph11.1 kmh 29.79 in1008.8 mb 0.00 in0.0 mm 0.00 in0.0 mm 0.21 in5.3 mm
08:35 PM 45.5°F7.5°C 40.6°F4.8°C 83% 6.0 mph WSW9.7 kmh WSW 10.7 mph17.2 kmh 29.79 in1008.8 mb 0.00 in0.0 mm 0.00 in0.0 mm 0.21 in5.3 mm
08:40 PM 45.5°F7.5°C 40.6°F4.8°C 83% 4.5 mph W7.2 kmh W 10.7 mph17.2 kmh 29.79 in1008.8 mb 0.00 in0.0 mm 0.00 in0.0 mm 0.21 in5.3 mm
08:45 PM 45.5°F7.5°C 40.6°F4.8°C 83% 2.2 mph NW3.5 kmh NW 8.3 mph13.4 kmh 29.79 in1008.8 mb 0.00 in0.0 mm 0.00 in0.0 mm 0.21 in5.3 mm
08:50 PM 45.5°F7.5°C 40.6°F4.8°C 83% 5.4 mph W8.7 kmh W 10.7 mph17.2 kmh 29.79 in1008.8 mb 0.00 in0.0 mm 0.00 in0.0 mm 0.21 in5.3 mm
08:55 PM 45.5°F7.5°C 40.6°F4.8°C 83% 4.5 mph WSW7.2 kmh WSW 10.7 mph17.2 kmh 29.79 in1008.8 mb 0.00 in0.0 mm 0.00 in0.0 mm 0.21 in5.3 mm
09:00 PM 45.5°F7.5°C 40.3°F4.6°C 82% 3.1 mph W5.0 kmh W 10.7 mph17.2 kmh 29.79 in1008.8 mb 0.00 in0.0 mm 0.00 in0.0 mm 0.21 in5.3 mm
09:05 PM 45.5°F7.5°C 40.3°F4.6°C 82% 3.8 mph W6.1 kmh W 8.3 mph13.4 kmh 29.79 in1008.8 mb 0.00 in0.0 mm 0.00 in0.0 mm 0.21 in5.3 mm
09:10 PM 45.1°F7.3°C 40.3°F4.6°C 83% 3.1 mph W5.0 kmh W 8.3 mph13.4 kmh 29.79 in1008.8 mb 0.00 in0.0 mm 0.00 in0.0 mm 0.21 in5.3 mm
09:15 PM 45.0°F7.2°C 40.1°F4.5°C 83% 3.1 mph W5.0 kmh W 7.6 mph12.2 kmh 29.79 in1008.8 mb 0.00 in0.0 mm 0.00 in0.0 mm 0.21 in5.3 mm
09:20 PM 44.6°F7.0°C 39.8°F4.3°C 83% 3.1 mph W5.0 kmh W 7.6 mph12.2 kmh 29.79 in1008.8 mb 0.00 in0.0 mm 0.00 in0.0 mm 0.21 in5.3 mm
09:25 PM 44.4°F6.9°C 40.2°F4.6°C 85% 3.8 mph WSW6.1 kmh WSW 6.0 mph9.7 kmh 29.79 in1008.8 mb 0.00 in0.0 mm 0.00 in0.0 mm 0.21 in5.3 mm
09:30 PM 44.2°F6.8°C 40.0°F4.4°C 85% 3.1 mph WSW5.0 kmh WSW 6.0 mph9.7 kmh 29.79 in1008.8 mb 0.00 in0.0 mm 0.00 in0.0 mm 0.21 in5.3 mm
09:35 PM 44.1°F6.7°C 40.1°F4.5°C 86% 5.4 mph WSW8.7 kmh WSW 9.2 mph14.8 kmh 29.79 in1008.8 mb 0.00 in0.0 mm 0.00 in0.0 mm 0.21 in5.3 mm
09:40 PM 44.1°F6.7°C 40.1°F4.5°C 86% 4.5 mph WSW7.2 kmh WSW 9.2 mph14.8 kmh 29.79 in1008.8 mb 0.00 in0.0 mm 0.00 in0.0 mm 0.21 in5.3 mm
09:45 PM 43.9°F6.6°C 40.0°F4.4°C 86% 5.4 mph WSW8.7 kmh WSW 9.2 mph14.8 kmh 29.79 in1008.8 mb 0.00 in0.0 mm 0.00 in0.0 mm 0.21 in5.3 mm
09:50 PM 43.9°F6.6°C 40.0°F4.4°C 86% 5.4 mph W8.7 kmh W 9.2 mph14.8 kmh 29.79 in1008.8 mb 0.00 in0.0 mm 0.00 in0.0 mm 0.21 in5.3 mm
09:55 PM 43.9°F6.6°C 40.3°F4.6°C 87% 6.0 mph W9.7 kmh W 9.8 mph15.8 kmh 29.79 in1008.8 mb 0.00 in0.0 mm 0.00 in0.0 mm 0.21 in5.3 mm
10:00 PM 43.9°F6.6°C 40.3°F4.6°C 87% 3.1 mph WSW5.0 kmh WSW 9.8 mph15.8 kmh 29.79 in1008.8 mb 0.00 in0.0 mm 0.00 in0.0 mm 0.21 in5.3 mm
10:05 PM 43.9°F6.6°C 40.3°F4.6°C 87% 2.2 mph SW3.5 kmh SW 7.6 mph12.2 kmh 29.79 in1008.8 mb 0.00 in0.0 mm 0.00 in0.0 mm 0.21 in5.3 mm
10:10 PM 43.7°F6.5°C 40.1°F4.5°C 87% 3.1 mph WSW5.0 kmh WSW 7.6 mph12.2 kmh 29.79 in1008.8 mb 0.00 in0.0 mm 0.00 in0.0 mm 0.21 in5.3 mm
10:15 PM 43.5°F6.4°C 39.9°F4.4°C 87% 2.2 mph W3.5 kmh W 6.9 mph11.1 kmh 29.79 in1008.8 mb 0.00 in0.0 mm 0.00 in0.0 mm 0.21 in5.3 mm
10:20 PM 43.5°F6.4°C 39.9°F4.4°C 87% 4.5 mph WSW7.2 kmh WSW 8.3 mph13.4 kmh 29.80 in1009.1 mb 0.00 in0.0 mm 0.00 in0.0 mm 0.21 in5.3 mm
10:25 PM 43.7°F6.5°C 40.1°F4.5°C 87% 2.2 mph SW3.5 kmh SW 9.2 mph14.8 kmh 29.80 in1009.1 mb 0.00 in0.0 mm 0.00 in0.0 mm 0.21 in5.3 mm
10:30 PM 43.7°F6.5°C 39.8°F4.3°C 86% 3.8 mph WSW6.1 kmh WSW 9.2 mph14.8 kmh 29.80 in1009.1 mb 0.00 in0.0 mm 0.00 in0.0 mm 0.21 in5.3 mm
10:35 PM 43.7°F6.5°C 39.8°F4.3°C 86% 4.5 mph WSW7.2 kmh WSW 9.2 mph14.8 kmh 29.80 in1009.1 mb 0.00 in0.0 mm 0.00 in0.0 mm 0.21 in5.3 mm
10:40 PM 44.1°F6.7°C 39.8°F4.3°C 85% 4.5 mph SW7.2 kmh SW 8.3 mph13.4 kmh 29.80 in1009.1 mb 0.00 in0.0 mm 0.00 in0.0 mm 0.21 in5.3 mm
10:45 PM 44.2°F6.8°C 40.0°F4.4°C 85% 3.1 mph SW5.0 kmh SW 8.3 mph13.4 kmh 29.80 in1009.1 mb 0.00 in0.0 mm 0.00 in0.0 mm 0.21 in5.3 mm
10:50 PM 44.2°F6.8°C 39.7°F4.3°C 84% 2.2 mph WSW3.5 kmh WSW 7.6 mph12.2 kmh 29.80 in1009.1 mb 0.00 in0.0 mm 0.00 in0.0 mm 0.21 in5.3 mm
10:55 PM 44.2°F6.8°C 39.7°F4.3°C 84% 4.5 mph W7.2 kmh W 6.9 mph11.1 kmh 29.80 in1009.1 mb 0.00 in0.0 mm 0.00 in0.0 mm 0.21 in5.3 mm
11:00 PM 44.4°F6.9°C 39.6°F4.2°C 83% 5.4 mph W8.7 kmh W 8.3 mph13.4 kmh 29.80 in1009.1 mb 0.00 in0.0 mm 0.00 in0.0 mm 0.21 in5.3 mm
11:05 PM 44.6°F7.0°C 39.5°F4.2°C 82% 2.2 mph W3.5 kmh W 8.3 mph13.4 kmh 29.80 in1009.1 mb 0.00 in0.0 mm 0.00 in0.0 mm 0.21 in5.3 mm
11:10 PM 44.4°F6.9°C 39.6°F4.2°C 83% 6.0 mph W9.7 kmh W 9.8 mph15.8 kmh 29.81 in1009.5 mb 0.00 in0.0 mm 0.00 in0.0 mm 0.21 in5.3 mm
11:15 PM 44.4°F6.9°C 39.3°F4.1°C 82% 3.8 mph WNW6.1 kmh WNW 9.8 mph15.8 kmh 29.80 in1009.1 mb 0.00 in0.0 mm 0.00 in0.0 mm 0.21 in5.3 mm
11:20 PM 44.2°F6.8°C 39.1°F3.9°C 82% 2.2 mph W3.5 kmh W 9.2 mph14.8 kmh 29.81 in1009.5 mb 0.00 in0.0 mm 0.00 in0.0 mm 0.21 in5.3 mm
11:25 PM 44.2°F6.8°C 39.1°F3.9°C 82% 2.2 mph W3.5 kmh W 6.0 mph9.7 kmh 29.82 in1009.8 mb 0.00 in0.0 mm 0.00 in0.0 mm 0.21 in5.3 mm
11:30 PM 43.9°F6.6°C 38.7°F3.7°C 82% 2.2 mph W3.5 kmh W 5.4 mph8.7 kmh 29.81 in1009.5 mb 0.00 in0.0 mm 0.00 in0.0 mm 0.21 in5.3 mm
11:35 PM 43.7°F6.5°C 38.9°F3.8°C 83% 2.2 mph W3.5 kmh W 5.4 mph8.7 kmh 29.81 in1009.5 mb 0.00 in0.0 mm 0.00 in0.0 mm 0.21 in5.3 mm
11:40 PM 43.3°F6.3°C 38.5°F3.6°C 83% 2.2 mph W3.5 kmh W 5.4 mph8.7 kmh 29.81 in1009.5 mb 0.00 in0.0 mm 0.00 in0.0 mm 0.21 in5.3 mm
11:45 PM 43.2°F6.2°C 38.4°F3.6°C 83% 1.6 mph W2.6 kmh W 3.8 mph6.1 kmh 29.81 in1009.5 mb 0.00 in0.0 mm 0.00 in0.0 mm 0.21 in5.3 mm
11:50 PM 42.8°F6.0°C 38.0°F3.3°C 83% 0.7 mph WNW1.1 kmh WNW 3.8 mph6.1 kmh 29.81 in1009.5 mb 0.00 in0.0 mm 0.00 in0.0 mm 0.21 in5.3 mm
11:55 PM 42.4°F5.8°C 38.0°F3.3°C 84% Calm Calm 3.1 mph5.0 kmh 29.81 in1009.5 mb 0.00 in0.0 mm 0.00 in0.0 mm 0.21 in5.3 mm